createdAt,value
2023-04-16T00:02:43.979Z,7.27
2023-04-16T00:05:32.524Z,7.31
2023-04-16T00:08:24.241Z,7.27
2023-04-16T00:11:12.816Z,7.29
2023-04-16T00:14:01.018Z,7.28
2023-04-16T00:16:49.454Z,7.31
2023-04-16T00:19:38.788Z,7.29
2023-04-16T00:22:27.233Z,7.25
2023-04-16T00:25:16.906Z,7.25
2023-04-16T00:28:06.080Z,7.27
2023-04-16T00:30:54.571Z,7.25
2023-04-16T00:33:42.860Z,7.24
2023-04-16T00:36:31.416Z,7.27
2023-04-16T00:39:23.485Z,7.25
2023-04-16T00:42:12.983Z,7.28
2023-04-16T00:45:01.298Z,7.27
2023-04-16T00:47:49.470Z,7.26
2023-04-16T00:50:37.639Z,7.28
2023-04-16T00:53:26.666Z,7.30
2023-04-16T00:56:15.072Z,7.31
2023-04-16T00:59:05.052Z,7.31
2023-04-16T01:01:53.254Z,7.28
2023-04-16T01:04:41.673Z,7.30
2023-04-16T01:07:29.855Z,7.32
2023-04-16T01:10:18.170Z,7.31
2023-04-16T01:13:06.238Z,7.33
2023-04-16T01:15:55.888Z,7.35
2023-04-16T01:18:44.003Z,7.33
2023-04-16T01:21:33.470Z,7.31
2023-04-16T01:24:21.675Z,7.31
2023-04-16T01:27:10.066Z,7.32
2023-04-16T01:29:58.132Z,7.30
2023-04-16T01:32:46.497Z,7.32
2023-04-16T01:35:34.599Z,7.34
2023-04-16T01:38:24.071Z,7.34
2023-04-16T01:41:12.154Z,7.34
2023-04-16T01:44:00.262Z,7.30
2023-04-16T01:46:48.857Z,7.29
2023-04-16T01:49:37.498Z,7.26
2023-04-16T01:52:25.940Z,7.24
2023-04-16T01:55:15.827Z,7.25
2023-04-16T01:58:04.352Z,7.26
2023-04-16T02:00:52.442Z,7.24
2023-04-16T02:03:41.633Z,7.20
2023-04-16T02:06:30.623Z,7.20
2023-04-16T02:09:18.821Z,7.18
2023-04-16T02:12:11.275Z,7.23
2023-04-16T02:14:59.457Z,7.18
2023-04-16T02:17:48.881Z,7.21
2023-04-16T02:20:40.649Z,7.19
2023-04-16T02:23:29.319Z,7.20
2023-04-16T02:26:18.000Z,7.23
2023-04-16T02:29:08.512Z,7.20
2023-04-16T02:31:56.868Z,7.22
2023-04-16T02:34:45.023Z,7.23
2023-04-16T02:37:33.179Z,7.19
2023-04-16T02:40:22.579Z,7.18
2023-04-16T02:43:10.652Z,7.19
2023-04-16T02:46:01.078Z,7.15
2023-04-16T02:48:49.188Z,7.09
2023-04-16T02:51:37.244Z,7.13
2023-04-16T02:54:25.781Z,7.07
2023-04-16T02:57:13.790Z,7.10
2023-04-16T03:00:02.324Z,7.10
2023-04-16T03:02:52.001Z,7.14
2023-04-16T03:05:40.559Z,7.11
2023-04-16T03:08:28.603Z,7.06
2023-04-16T03:11:16.829Z,7.07
2023-04-16T03:14:05.556Z,7.05
2023-04-16T03:16:53.597Z,7.04
2023-04-16T03:19:43.154Z,7.07
2023-04-16T03:22:31.557Z,7.06
2023-04-16T03:25:20.339Z,7.02
2023-04-16T03:28:08.472Z,6.95
2023-04-16T03:30:56.800Z,6.95
2023-04-16T03:33:45.028Z,6.95
2023-04-16T03:36:34.517Z,6.92
2023-04-16T03:39:22.792Z,6.90
2023-04-16T03:42:10.988Z,6.88
2023-04-16T03:44:59.399Z,6.87
2023-04-16T03:47:52.340Z,6.87
2023-04-16T03:50:41.264Z,6.91
2023-04-16T03:53:31.038Z,6.90
2023-04-16T03:56:19.348Z,6.91
2023-04-16T03:59:07.608Z,6.92
2023-04-16T04:01:56.492Z,6.90
2023-04-16T04:04:45.165Z,6.92
2023-04-16T04:07:33.222Z,6.93
2023-04-16T04:10:22.663Z,6.92
2023-04-16T04:13:10.825Z,6.97
2023-04-16T04:15:58.977Z,7.01
2023-04-16T04:18:47.007Z,7.00
2023-04-16T04:21:35.226Z,6.98
2023-04-16T04:24:23.423Z,7.01
2023-04-16T04:27:13.259Z,7.02
2023-04-16T04:30:01.370Z,7.04
2023-04-16T04:32:49.736Z,7.04
2023-04-16T04:35:37.718Z,7.02
2023-04-16T04:38:26.706Z,7.02
2023-04-16T04:41:14.903Z,7.02
2023-04-16T04:44:04.443Z,6.97
2023-04-16T04:46:52.527Z,6.97
2023-04-16T04:49:41.088Z,7.00
2023-04-16T04:52:29.297Z,6.99
2023-04-16T04:55:17.378Z,7.01
2023-04-16T04:58:06.194Z,6.99
2023-04-16T05:00:56.008Z,7.00
2023-04-16T05:03:44.583Z,7.02
2023-04-16T05:06:32.721Z,7.02
2023-04-16T05:09:20.985Z,7.02
2023-04-16T05:12:09.170Z,7.01
2023-04-16T05:14:57.274Z,7.02
2023-04-16T05:17:46.833Z,6.99
2023-04-16T05:20:35.050Z,7.02
2023-04-16T05:23:23.396Z,7.06
2023-04-16T05:26:11.459Z,7.05
2023-04-16T05:28:59.464Z,7.05
2023-04-16T05:31:47.644Z,7.05
2023-04-16T05:34:37.186Z,7.06
2023-04-16T05:37:26.094Z,7.05
2023-04-16T05:40:15.107Z,7.11
2023-04-16T05:43:03.189Z,7.11
2023-04-16T05:45:51.334Z,7.10
2023-04-16T05:48:39.840Z,7.13
2023-04-16T05:51:29.458Z,7.11
2023-04-16T05:54:17.897Z,7.14
2023-04-16T05:57:07.074Z,7.14
2023-04-16T05:59:55.166Z,7.17
2023-04-16T06:02:43.473Z,7.14
2023-04-16T06:05:31.968Z,7.19
2023-04-16T06:08:22.225Z,7.19
2023-04-16T06:11:10.603Z,7.19
2023-04-16T06:13:58.798Z,7.18
2023-04-16T06:16:47.401Z,7.19
2023-04-16T06:19:35.678Z,7.23
2023-04-16T06:22:23.846Z,7.26
2023-04-16T06:25:13.492Z,7.23
2023-04-16T06:28:01.976Z,7.27
2023-04-16T06:30:50.011Z,7.26
2023-04-16T06:33:38.031Z,7.22
2023-04-16T06:36:27.546Z,7.20
2023-04-16T06:39:23.999Z,7.19
2023-04-16T06:42:13.589Z,7.14
2023-04-16T06:45:01.838Z,7.14
2023-04-16T06:47:51.128Z,7.13
2023-04-16T06:50:39.519Z,7.09
2023-04-16T06:53:27.765Z,7.13
2023-04-16T06:56:16.057Z,7.11
2023-04-16T06:59:06.299Z,7.10
2023-04-16T07:01:54.530Z,7.06
2023-04-16T07:04:43.016Z,7.12
2023-04-16T07:07:31.177Z,7.13
2023-04-16T07:10:22.420Z,7.09
2023-04-16T07:13:10.636Z,7.05
2023-04-16T07:16:01.588Z,7.11
2023-04-16T07:18:49.763Z,7.12
2023-04-16T07:21:38.181Z,7.10
2023-04-16T07:24:26.565Z,7.17
2023-04-16T07:27:23.245Z,7.20
2023-04-16T07:30:13.080Z,7.12
2023-04-16T07:33:04.154Z,7.07
2023-04-16T07:35:52.261Z,7.12
2023-04-16T07:38:43.089Z,7.13
2023-04-16T07:41:31.175Z,7.22
2023-04-16T07:44:19.187Z,7.20
2023-04-16T07:47:07.448Z,7.18
2023-04-16T07:49:56.824Z,7.25
2023-04-16T07:52:45.408Z,7.28
2023-04-16T07:55:33.519Z,7.30
2023-04-16T07:58:31.060Z,7.35
2023-04-16T08:01:19.221Z,7.41
2023-04-16T08:04:07.525Z,7.32
2023-04-16T08:06:57.034Z,7.44
2023-04-16T08:09:49.834Z,7.47
2023-04-16T08:12:38.684Z,7.40
2023-04-16T08:15:27.871Z,7.41
2023-04-16T08:18:16.140Z,7.40
2023-04-16T08:21:04.341Z,7.46
2023-04-16T08:23:54.434Z,7.52
2023-04-16T08:26:42.615Z,7.44
2023-04-16T08:29:30.641Z,7.46
2023-04-16T08:32:18.821Z,7.47
2023-04-16T08:35:07.538Z,7.48
2023-04-16T08:37:57.897Z,7.44
2023-04-16T08:40:48.719Z,7.47
2023-04-16T08:43:39.326Z,7.60
2023-04-16T08:46:30.444Z,7.63
2023-04-16T08:49:19.398Z,7.64
2023-04-16T08:52:10.520Z,7.65
2023-04-16T08:55:06.002Z,7.76
2023-04-16T08:57:59.427Z,7.88
2023-04-16T09:00:50.464Z,7.91
2023-04-16T09:03:39.537Z,7.86
2023-04-16T09:06:28.572Z,7.74
2023-04-16T09:09:20.090Z,7.83
2023-04-16T09:12:09.868Z,7.71
2023-04-16T09:15:03.146Z,7.84
2023-04-16T09:17:51.275Z,7.66
2023-04-16T09:20:39.679Z,7.65
2023-04-16T09:23:27.790Z,7.57
2023-04-16T09:26:16.461Z,7.52
2023-04-16T09:29:04.599Z,7.62
2023-04-16T09:32:03.256Z,7.74
2023-04-16T09:34:59.452Z,7.69
2023-04-16T09:37:57.005Z,7.63
2023-04-16T09:40:45.227Z,7.65
2023-04-16T09:43:33.310Z,7.74
2023-04-16T09:46:21.667Z,7.74
2023-04-16T09:49:12.607Z,7.68
2023-04-16T09:52:00.919Z,7.75
2023-04-16T09:54:50.167Z,7.87
2023-04-16T09:57:39.240Z,7.65
2023-04-16T10:00:27.633Z,7.84
2023-04-16T10:03:15.920Z,7.79
2023-04-16T10:06:09.405Z,7.82
2023-04-16T10:08:58.089Z,7.97
2023-04-16T10:11:46.445Z,8.03
2023-04-16T10:14:34.895Z,7.87
2023-04-16T10:17:24.000Z,7.92
2023-04-16T10:20:12.894Z,7.85
2023-04-16T10:23:03.314Z,8.03
2023-04-16T10:25:52.625Z,7.95
2023-04-16T10:28:41.898Z,8.14
2023-04-16T10:31:30.962Z,8.12
2023-04-16T10:34:21.804Z,8.18
2023-04-16T10:37:10.342Z,8.03
2023-04-16T10:40:01.353Z,8.01
2023-04-16T10:42:55.710Z,7.99
2023-04-16T10:45:43.941Z,8.06
2023-04-16T10:48:42.338Z,8.02
2023-04-16T10:51:37.816Z,8.11
2023-04-16T10:54:27.518Z,8.15
2023-04-16T10:57:19.348Z,8.26
2023-04-16T11:00:24.074Z,8.11
2023-04-16T11:03:12.711Z,8.10
2023-04-16T11:06:14.643Z,8.13
2023-04-16T11:09:05.702Z,8.28
2023-04-16T11:11:54.328Z,8.23
2023-04-16T11:14:44.543Z,8.28
2023-04-16T11:17:39.697Z,8.52
2023-04-16T11:20:29.509Z,8.39
2023-04-16T11:23:20.521Z,8.33
2023-04-16T11:26:21.548Z,8.51
2023-04-16T11:29:15.620Z,8.55
2023-04-16T11:32:05.229Z,8.31
2023-04-16T11:34:57.724Z,8.42
2023-04-16T11:37:46.802Z,8.38
2023-04-16T11:40:35.923Z,8.39
2023-04-16T11:43:24.070Z,8.48
2023-04-16T11:46:26.414Z,8.50
2023-04-16T11:49:17.811Z,8.47
2023-04-16T11:52:05.958Z,8.59
2023-04-16T11:54:54.697Z,8.67
2023-04-16T11:57:42.870Z,8.50
2023-04-16T12:00:35.963Z,8.54
2023-04-16T12:03:39.552Z,8.27
2023-04-16T12:06:29.430Z,8.41
2023-04-16T12:09:24.259Z,8.43
2023-04-16T12:12:30.519Z,8.35
2023-04-16T12:15:18.988Z,8.29
2023-04-16T12:18:10.562Z,8.38
2023-04-16T12:20:58.841Z,8.49
2023-04-16T12:23:54.397Z,8.41
2023-04-16T12:26:43.861Z,8.52
2023-04-16T12:29:32.403Z,8.51
2023-04-16T12:32:24.541Z,8.49
2023-04-16T12:35:13.490Z,8.32
2023-04-16T12:38:03.591Z,8.23
2023-04-16T12:40:56.577Z,8.42
2023-04-16T12:43:48.210Z,8.45
2023-04-16T12:46:38.210Z,8.52
2023-04-16T12:49:26.346Z,8.67
2023-04-16T12:52:15.077Z,8.68
2023-04-16T12:55:03.808Z,8.54
2023-04-16T12:57:53.783Z,8.69
2023-04-16T13:00:42.450Z,8.40
2023-04-16T13:03:31.151Z,8.46
2023-04-16T13:06:22.177Z,8.59
2023-04-16T13:09:10.699Z,8.56
2023-04-16T13:11:59.124Z,8.50
2023-04-16T13:14:48.576Z,8.59
2023-04-16T13:17:36.936Z,8.55
2023-04-16T13:20:25.198Z,8.58
2023-04-16T13:23:13.692Z,8.62
2023-04-16T13:26:01.707Z,8.84
2023-04-16T13:28:52.499Z,8.73
2023-04-16T13:31:42.031Z,8.69
2023-04-16T13:34:30.170Z,8.71
2023-04-16T13:37:18.344Z,8.66
2023-04-16T13:40:08.312Z,8.63
2023-04-16T13:42:56.539Z,8.55
2023-04-16T13:45:44.772Z,8.44
2023-04-16T13:48:34.256Z,8.52
2023-04-16T13:51:24.620Z,8.68
2023-04-16T13:54:12.856Z,8.76
2023-04-16T13:57:01.542Z,8.92
2023-04-16T13:59:52.051Z,8.96
2023-04-16T14:02:40.870Z,8.91
2023-04-16T14:05:30.416Z,8.93
2023-04-16T14:08:21.175Z,8.88
2023-04-16T14:11:12.304Z,8.78
2023-04-16T14:14:00.741Z,8.62
2023-04-16T14:16:48.925Z,8.54
2023-04-16T14:19:37.184Z,8.48
2023-04-16T14:22:26.970Z,8.58
2023-04-16T14:25:15.199Z,8.59
2023-04-16T14:28:03.362Z,8.62
2023-04-16T14:30:51.410Z,8.52
2023-04-16T14:33:41.171Z,8.44
2023-04-16T14:36:29.428Z,8.46
2023-04-16T14:39:18.913Z,8.56
2023-04-16T14:42:07.173Z,8.58
2023-04-16T14:44:55.647Z,8.70
2023-04-16T14:47:49.652Z,8.58
2023-04-16T14:50:38.849Z,8.57
2023-04-16T14:53:27.150Z,8.57
2023-04-16T14:56:16.673Z,8.72
2023-04-16T14:59:04.749Z,8.62
2023-04-16T15:01:53.663Z,8.47
2023-04-16T15:04:41.822Z,8.55
2023-04-16T15:07:30.055Z,8.65
2023-04-16T15:10:18.199Z,8.69
2023-04-16T15:13:07.781Z,8.65
2023-04-16T15:15:56.329Z,8.65
2023-04-16T15:18:44.453Z,8.60
2023-04-16T15:21:32.882Z,8.50
2023-04-16T15:24:21.405Z,8.50
2023-04-16T15:27:11.742Z,8.42
2023-04-16T15:30:01.828Z,8.41
2023-04-16T15:32:50.080Z,8.39
2023-04-16T15:35:41.421Z,8.38
2023-04-16T15:38:32.624Z,8.52
2023-04-16T15:41:20.886Z,8.43
2023-04-16T15:44:09.215Z,8.40
2023-04-16T15:47:00.581Z,8.41
2023-04-16T15:49:57.729Z,8.46
2023-04-16T15:52:46.699Z,8.41
2023-04-16T15:55:36.275Z,8.34
2023-04-16T15:58:24.486Z,8.37
2023-04-16T16:01:12.869Z,8.26
2023-04-16T16:04:03.011Z,8.25
2023-04-16T16:06:51.750Z,8.20
2023-04-16T16:09:43.097Z,8.13
2023-04-16T16:12:31.403Z,8.13
2023-04-16T16:15:19.524Z,8.23
2023-04-16T16:18:07.715Z,8.30
2023-04-16T16:20:59.132Z,8.28
2023-04-16T16:23:47.647Z,8.22
2023-04-16T16:26:35.852Z,8.18
2023-04-16T16:29:25.438Z,8.20
2023-04-16T16:32:14.080Z,8.25
2023-04-16T16:35:02.039Z,8.27
2023-04-16T16:37:55.403Z,8.30
2023-04-16T16:40:43.727Z,8.18
2023-04-16T16:43:31.729Z,8.25
2023-04-16T16:46:22.869Z,8.27
2023-04-16T16:49:11.536Z,8.30
2023-04-16T16:51:59.798Z,8.33
2023-04-16T16:54:49.821Z,8.42
2023-04-16T16:57:38.482Z,8.37
2023-04-16T17:00:26.762Z,8.35
2023-04-16T17:03:17.939Z,8.26
2023-04-16T17:06:06.354Z,8.28
2023-04-16T17:08:54.601Z,8.27
2023-04-16T17:11:44.022Z,8.19
2023-04-16T17:14:33.522Z,8.25
2023-04-16T17:17:21.793Z,8.28
2023-04-16T17:20:13.276Z,8.16
2023-04-16T17:23:01.273Z,8.07
2023-04-16T17:25:49.263Z,8.03
2023-04-16T17:28:40.642Z,8.08
2023-04-16T17:31:28.838Z,8.03
2023-04-16T17:34:19.486Z,7.91
2023-04-16T17:37:07.921Z,7.95
2023-04-16T17:39:56.022Z,7.91
2023-04-16T17:42:44.038Z,7.98
2023-04-16T17:45:34.055Z,7.96
2023-04-16T17:48:22.420Z,7.93
2023-04-16T17:51:11.673Z,7.89
2023-04-16T17:53:59.855Z,7.94
2023-04-16T17:56:47.846Z,7.77
2023-04-16T17:59:36.042Z,7.73
2023-04-16T18:02:25.842Z,7.75
2023-04-16T18:05:14.124Z,7.78
2023-04-16T18:08:02.128Z,7.75
2023-04-16T18:10:55.109Z,7.75
2023-04-16T18:13:43.585Z,7.74
2023-04-16T18:16:31.577Z,7.73
2023-04-16T18:19:20.983Z,7.66
2023-04-16T18:22:09.169Z,7.63
2023-04-16T18:24:58.094Z,7.61
2023-04-16T18:27:47.542Z,7.64
2023-04-16T18:30:36.141Z,7.62
2023-04-16T18:33:48.854Z,7.62
2023-04-16T18:36:33.728Z,7.60
2023-04-16T18:39:21.943Z,7.59
2023-04-16T18:42:12.571Z,7.55
2023-04-16T18:45:00.763Z,7.52
2023-04-16T18:47:50.221Z,7.55
2023-04-16T18:50:38.371Z,7.53
2023-04-16T18:53:29.144Z,7.55
2023-04-16T18:56:17.152Z,7.54
2023-04-16T18:59:07.172Z,7.56
2023-04-16T19:01:56.133Z,7.58
2023-04-16T19:04:44.162Z,7.54
2023-04-16T19:07:32.751Z,7.55
2023-04-16T19:10:22.151Z,7.60
2023-04-16T19:13:10.352Z,7.62
2023-04-16T19:15:59.520Z,7.62
2023-04-16T19:20:01.646Z,7.62
2023-04-16T19:22:49.889Z,7.55
2023-04-16T19:25:40.619Z,7.59
2023-04-16T19:28:28.730Z,7.58
2023-04-16T19:31:17.556Z,7.49
2023-04-16T19:34:05.849Z,7.47
2023-04-16T19:36:53.944Z,7.47
2023-04-16T19:39:42.106Z,7.50
2023-04-16T19:42:31.693Z,7.49
2023-04-16T19:45:23.419Z,7.54
2023-04-16T19:48:12.198Z,7.45
2023-04-16T19:51:02.825Z,7.43
2023-04-16T19:53:51.776Z,7.41
2023-04-16T19:56:39.829Z,7.39
2023-04-16T19:59:29.573Z,7.36
2023-04-16T20:02:17.685Z,7.42
2023-04-16T20:05:06.391Z,7.42
2023-04-16T20:07:54.504Z,7.41
2023-04-16T20:10:42.642Z,7.44
2023-04-16T20:13:30.746Z,7.44
2023-04-16T20:16:23.535Z,7.39
2023-04-16T20:19:17.056Z,7.43
2023-04-16T20:22:06.519Z,7.40
2023-04-16T20:24:54.855Z,7.37
2023-04-16T20:27:42.889Z,7.39
2023-04-16T20:30:38.613Z,7.39
2023-04-16T20:33:28.087Z,7.38
2023-04-16T20:36:16.208Z,7.40
2023-04-16T20:39:07.649Z,7.40
2023-04-16T20:41:57.466Z,7.39
2023-04-16T20:44:50.570Z,7.30
2023-04-16T20:47:38.674Z,7.29
2023-04-16T20:50:28.837Z,7.28
2023-04-16T20:53:16.882Z,7.29
2023-04-16T20:56:04.991Z,7.23
2023-04-16T20:58:53.909Z,7.23
2023-04-16T21:01:41.934Z,7.18
2023-04-16T21:04:29.941Z,7.22
2023-04-16T21:07:19.473Z,7.17
2023-04-16T21:10:09.033Z,7.20
2023-04-16T21:12:57.478Z,7.23
2023-04-16T21:15:46.189Z,7.26
2023-04-16T21:18:36.637Z,7.25
2023-04-16T21:21:25.870Z,7.22
2023-04-16T21:24:15.446Z,7.21
2023-04-16T21:27:03.462Z,7.20
2023-04-16T21:29:51.878Z,7.28
2023-04-16T21:32:39.908Z,7.26
2023-04-16T21:35:28.501Z,7.26
2023-04-16T21:38:16.572Z,7.26
2023-04-16T21:41:05.951Z,7.28
2023-04-16T21:43:53.994Z,7.21
2023-04-16T21:46:42.065Z,7.20
2023-04-16T21:49:30.443Z,7.22
2023-04-16T21:52:19.125Z,7.21
2023-04-16T21:55:09.548Z,7.19
2023-04-16T21:57:59.484Z,7.17
2023-04-16T22:00:48.055Z,7.14
2023-04-16T22:03:40.851Z,7.14
2023-04-16T22:06:30.181Z,7.09
2023-04-16T22:09:26.622Z,7.11
2023-04-16T22:12:14.620Z,7.10
2023-04-16T22:15:05.009Z,7.09
2023-04-16T22:17:53.192Z,7.09
2023-04-16T22:20:41.241Z,7.15
2023-04-16T22:23:29.297Z,7.13
2023-04-16T22:26:17.330Z,7.10
2023-04-16T22:29:05.516Z,7.13
2023-04-16T22:31:55.067Z,7.10
2023-04-16T22:34:43.279Z,7.13
2023-04-16T22:37:31.283Z,7.13
2023-04-16T22:40:19.381Z,7.14
2023-04-16T22:43:07.357Z,7.15
2023-04-16T22:46:04.554Z,7.14
2023-04-16T22:48:54.657Z,7.11
2023-04-16T22:51:42.643Z,7.07
2023-04-16T22:54:30.770Z,7.06
2023-04-16T22:57:21.133Z,7.03
2023-04-16T23:00:15.389Z,6.99
2023-04-16T23:03:03.671Z,7.02
2023-04-16T23:05:53.153Z,7.06
2023-04-16T23:08:41.314Z,7.09
2023-04-16T23:11:29.278Z,7.08
2023-04-16T23:14:17.285Z,7.12
2023-04-16T23:17:05.352Z,7.12
2023-04-16T23:19:53.261Z,7.08
2023-04-16T23:22:42.654Z,7.09
2023-04-16T23:25:30.986Z,7.13
2023-04-16T23:28:18.974Z,7.10
2023-04-16T23:31:07.612Z,7.06
2023-04-16T23:33:56.350Z,7.05
2023-04-16T23:36:44.488Z,7.08
2023-04-16T23:39:33.886Z,7.07
2023-04-16T23:42:22.406Z,7.07
2023-04-16T23:45:11.756Z,7.01
2023-04-16T23:47:59.856Z,7.02
2023-04-16T23:50:48.281Z,7.00
2023-04-16T23:53:36.502Z,7.00
2023-04-16T23:56:27.493Z,7.01
2023-04-16T23:59:16.769Z,7.03
